Saturday, June 25, 2016
01:34 UTC
  |  Log In   |  Register Free
Airport Search:

Coleman Municipal Airport
(KCOM)

Coleman Municipal Airport Diagram
No Airport Diagram Available

FAA data valid effective May 26 2016 - Jul 21 2016 (unless otherwise noted).

 
 
 
 
 
 
 
 
 
 
 
 
 
 
Current Aviation Weather for KCOM

Weather Summary


The most recent METAR observation for COM was updated at: 12:55 UTC
METAR for KCOM is not available. Closest METAR is for KBWD
KCOM  (most recent observation was updatred at 25:01 UTC)
250115Z AUTO 14010KT 10SM CLR 31/16 A2997 RMK AO2 T03050157

KBWD  (23.0 nm NW)   (most recent observation was updated at 25:01 UTC)
250115Z AUTO 13006KT 10SM CLR 29/18 A2996 RMK AO2

TAF for KCOM is not available.
GlobalAir.com is loading additional information.
 Current Weather at COM
92.0 F° (33.4 C°)

South winds at 12.7 mph
Pressure:
29.96 in
Humidity:
33%
Wind:
South at 12.7 mph
Dew Point:
58.8 F° (14.9 C°)
Visibility:
10.00 mi
COM NOAA Radar




Find All Airport Services Find A Hotel Find A Rental Car Find A Golf Course Find A Restaurant $100 Hamburger



Airport Weather Forecast for KCOM

Translated METAR for KCOM (0115 UTC)
METAR:
KCOM 250115Z AUTO 14010KT 10SM CLR 31/16 A2997 RMK AO2 T03050157
Conditions at:
KCOM (Coleman Muni, TX) observed 0115 UTC 24 June 2016
Temperature:
31°C (87.8°F)
Dewpoint:
16°C (60.8°F) [RH = 40.4]
Pressure:
29.97 inches Hg (1014.9 mb)
Winds:
from the SE (140 degrees) at 11.5 mph (10 knots: 5.1 m/s)
Visibility:
10 mile(s)
Ceiling:
at least 12,000 feet AGL
Clouds:
Clear below 12,000 feet AGL
Remarks:
site is un-manned
site is automated and HAS a precipitation sensor

Translated TAF for TAF for COM is not available. Refer to local area forecast.
FBO's on the Field
FBO Company Facility Photos Services Transportation Aviation Fuel Prices: Prices include tax
Catering Weather Repair Courtesy Rental Type 100LL JetA JetA+ MOGAS 8087
 
Add another FBO Facility Photos Catering Weather Repair Courtesy Rental Type 100LL JetA JetA+ MOGAS 8087
Services Transportation Aviation Fuel Prices: Prices include tax
There are no FBO's currently reporting fuel at COM. List your FBO now


model-print
model-print
model-print
model-print